Detall de PIREP

Printer-friendly versionPDF version

[2014/12/31 08:56:00]
Flight IATA:CT1004
Pilot Number:012
Company ICAO:CAT
Aircraft Type:MD11/E
PAX:225
Aircraft Registration:PAX
Departing Airport: EDDF
Destination Airport: LFMP
Alternate Airport:LEBL
Online: VATSIM
Route:ANEKI Y163 HERBI Y164 OLBEN UN869 MILPA UN852 BALSI UY16 KURIR UY23 MTL UZ38 BOLSA UZ39 SIJAN
Flight Level:F330
No Slew and time accel
No pause
Crash detect
Detect pilot in Cockpit between each 30 and 45 minutes
08:56 Zero fuel Weight: 408081 Lbs, Fuel Weight: 43807 Lbs
08:56 VATSIM:EDDF 310820Z 18007KT 6000 OVC015 01/M00 Q1035 R25R/1///95 R25C/1///95 R25L/1///95 R18/1///95 BECMG OVC013
08:56 VATSIM:LFMP 310830Z AUTO 29019KT 9999 NSC 08/M08 Q1028
08:56 X-MAS CHARTER
08:57 Parking Brakes off
09:04 Take-off
09:04 Take off Weight: 450396 Lbs
09:04 Wind: 178º @ 006 Knots Heading: 179º
09:04 POS N50º 01´ 11´´ E008º 31´ 34´´
09:04 Gear Up: 202 Knots
09:04 Flaps:3 at 202 Knots
09:05 Flaps:2 at 225 Knots
09:05 Flaps:3 at 228 Knots
09:05 Flaps:2 at 229 Knots
09:05 Flaps:1 at 231 Knots
09:06 Flaps:0 at 241 Knots
09:16 TOC
09:16 Fuel Weight: 34051 Lb
09:19 Wind:076º@037 Knots Heading: 189º Ground Speed: 479 Knots Altitude 33654 ft
09:34 Wind:088º@035 Knots Heading: 227º Ground Speed: 493 Knots Altitude 33569 ft
09:49 Wind:069º@042 Knots Heading: 222º Ground Speed: 502 Knots Altitude 33569 ft
09:58 TOD
09:58 Fuel Weight: 22653 Lb
10:04 Wind:043º@031 Knots Heading: 208º Ground Speed: 429 Knots Altitude 21771 ft
10:15 Flaps:1 at 243 Knots
10:15 Flaps:2 at 246 Knots
10:15 Gear Down: 244 Knots
10:15 Flaps:3 at 243 Knots
10:16 Flaps:4 at 185 Knots
10:16 Flaps:3 at 185 Knots
10:16 Flaps:4 at 185 Knots
10:16 Flaps:5 at 186 Knots
10:16 Flaps:6 at 187 Knots
10:17 Flaps:7 at 163 Knots
10:18 Flaps:6 at 188 Knots
10:18 Flaps:7 at 189 Knots
10:18 Flaps:6 at 191 Knots
10:18 Flaps:5 at 192 Knots
10:18 Flaps:6 at 190 Knots
10:18 Flaps:7 at 189 Knots
10:19 Wind:290º@030 Knots Heading: 320º Ground Speed: 148 Knots Altitude 2929 ft
10:21 TouchDown:Rate -297 ft/min Speed: 152 Knots
10:22 VATSIM:LFMP 311000Z AUTO 30023G34KT 9999 NSC 10/M08 Q1027
10:22 Land
10:22 Wind:289º@028 Knots
10:22 Heading: 329º
10:22 Flight Duration: 01:18
10:22 Landing Weight: 426386 Lbs
10:22 POS N42º 45´ 00´´ E002º 51´ 54´´
10:25 Parking brakes on
10:25 Block to Block Duration: 01:28
10:25 Final Fuel: 17841 Lbls
10:25 Spent Fuel: 25965 Lbls
10:25 Flight Length: 551 NM
10:25 TOD Land Length: 126 NM

Exportar CSV

Powered by Drupal - Modified by Danger4k